sensor_id;sensor_type;location;lat;lon;timestamp;P1;durP1;ratioP1;P2;durP2;ratioP2
62014;SDS011;47970;52.396;9.586;2022-11-18T00:00:55;5.45;;;3.58;;
62014;SDS011;47970;52.396;9.586;2022-11-18T00:03:21;6.27;;;3.60;;
62014;SDS011;47970;52.396;9.586;2022-11-18T00:05:52;6.50;;;3.50;;
62014;SDS011;47970;52.396;9.586;2022-11-18T00:08:18;8.63;;;3.30;;
62014;SDS011;47970;52.396;9.586;2022-11-18T00:10:44;8.88;;;3.72;;
62014;SDS011;47970;52.396;9.586;2022-11-18T00:13:12;8.30;;;3.93;;
62014;SDS011;47970;52.396;9.586;2022-11-18T00:16:03;9.70;;;3.38;;
62014;SDS011;47970;52.396;9.586;2022-11-18T00:18:29;6.25;;;3.50;;
62014;SDS011;47970;52.396;9.586;2022-11-18T00:20:54;6.78;;;3.70;;
62014;SDS011;47970;52.396;9.586;2022-11-18T00:23:19;6.18;;;3.58;;
62014;SDS011;47970;52.396;9.586;2022-11-18T00:25:44;7.23;;;4.07;;
62014;SDS011;47970;52.396;9.586;2022-11-18T00:28:10;7.93;;;4.10;;
62014;SDS011;47970;52.396;9.586;2022-11-18T00:30:35;8.45;;;4.60;;
62014;SDS011;47970;52.396;9.586;2022-11-18T00:33:00;8.90;;;4.60;;
62014;SDS011;47970;52.396;9.586;2022-11-18T00:35:25;5.87;;;3.70;;
62014;SDS011;47970;52.396;9.586;2022-11-18T00:37:50;8.80;;;4.70;;
62014;SDS011;47970;52.396;9.586;2022-11-18T00:40:16;17.13;;;4.80;;
62014;SDS011;47970;52.396;9.586;2022-11-18T00:42:41;11.50;;;5.15;;
62014;SDS011;47970;52.396;9.586;2022-11-18T00:45:15;9.48;;;4.57;;
62014;SDS011;47970;52.396;9.586;2022-11-18T00:47:41;8.38;;;4.40;;
62014;SDS011;47970;52.396;9.586;2022-11-18T00:50:06;8.73;;;5.00;;
62014;SDS011;47970;52.396;9.586;2022-11-18T00:52:31;10.23;;;4.68;;
62014;SDS011;47970;52.396;9.586;2022-11-18T00:54:56;10.32;;;5.40;;
62014;SDS011;47970;52.396;9.586;2022-11-18T00:57:22;8.30;;;4.13;;
62014;SDS011;47970;52.396;9.586;2022-11-18T00:59:47;10.52;;;4.60;;
62014;SDS011;47970;52.396;9.586;2022-11-18T01:02:12;10.52;;;4.95;;
62014;SDS011;47970;52.396;9.586;2022-11-18T01:04:37;7.97;;;4.00;;
62014;SDS011;47970;52.396;9.586;2022-11-18T01:07:03;9.32;;;4.15;;
62014;SDS011;47970;52.396;9.586;2022-11-18T01:09:28;10.13;;;5.05;;
62014;SDS011;47970;52.396;9.586;2022-11-18T01:11:53;12.20;;;4.72;;
62014;SDS011;47970;52.396;9.586;2022-11-18T01:14:37;13.95;;;4.78;;
62014;SDS011;47970;52.396;9.586;2022-11-18T01:17:02;9.67;;;4.07;;
62014;SDS011;47970;52.396;9.586;2022-11-18T01:19:27;11.77;;;4.47;;
62014;SDS011;47970;52.396;9.586;2022-11-18T01:21:53;11.53;;;5.07;;
62014;SDS011;47970;52.396;9.586;2022-11-18T01:24:20;10.32;;;5.20;;
62014;SDS011;47970;52.396;9.586;2022-11-18T01:26:46;7.43;;;4.30;;
62014;SDS011;47970;52.396;9.586;2022-11-18T01:29:11;9.05;;;4.25;;
62014;SDS011;47970;52.396;9.586;2022-11-18T01:31:36;8.60;;;3.80;;
62014;SDS011;47970;52.396;9.586;2022-11-18T01:34:02;7.20;;;3.72;;
62014;SDS011;47970;52.396;9.586;2022-11-18T01:36:27;7.28;;;4.07;;
62014;SDS011;47970;52.396;9.586;2022-11-18T01:38:53;11.07;;;4.17;;
62014;SDS011;47970;52.396;9.586;2022-11-18T01:41:19;7.82;;;3.92;;
62014;SDS011;47970;52.396;9.586;2022-11-18T01:44:01;7.03;;;3.85;;
62014;SDS011;47970;52.396;9.586;2022-11-18T01:46:27;6.60;;;3.67;;
62014;SDS011;47970;52.396;9.586;2022-11-18T01:49:14;8.18;;;3.85;;
62014;SDS011;47970;52.396;9.586;2022-11-18T01:51:48;5.50;;;3.60;;
62014;SDS011;47970;52.396;9.586;2022-11-18T01:54:19;7.22;;;3.97;;
62014;SDS011;47970;52.396;9.586;2022-11-18T01:56:46;6.72;;;3.53;;
62014;SDS011;47970;52.396;9.586;2022-11-18T01:59:15;7.50;;;3.53;;
62014;SDS011;47970;52.396;9.586;2022-11-18T02:01:42;8.32;;;4.30;;
62014;SDS011;47970;52.396;9.586;2022-11-18T02:04:07;7.75;;;4.32;;
62014;SDS011;47970;52.396;9.586;2022-11-18T02:06:33;10.63;;;4.22;;
62014;SDS011;47970;52.396;9.586;2022-11-18T02:08:58;6.97;;;3.58;;
62014;SDS011;47970;52.396;9.586;2022-11-18T02:11:24;10.40;;;3.25;;
62014;SDS011;47970;52.396;9.586;2022-11-18T02:14:08;6.63;;;3.47;;
62014;SDS011;47970;52.396;9.586;2022-11-18T02:16:46;8.95;;;3.50;;
62014;SDS011;47970;52.396;9.586;2022-11-18T02:32:23;10.35;;;3.63;;
62014;SDS011;47970;52.396;9.586;2022-11-18T02:34:50;6.38;;;3.70;;
62014;SDS011;47970;52.396;9.586;2022-11-18T02:37:38;8.10;;;4.38;;
62014;SDS011;47970;52.396;9.586;2022-11-18T02:42:36;8.07;;;3.78;;
62014;SDS011;47970;52.396;9.586;2022-11-18T02:45:05;6.07;;;3.70;;
62014;SDS011;47970;52.396;9.586;2022-11-18T02:47:32;6.30;;;3.55;;
62014;SDS011;47970;52.396;9.586;2022-11-18T02:50:01;7.53;;;3.80;;
62014;SDS011;47970;52.396;9.586;2022-11-18T02:52:27;7.07;;;3.30;;
62014;SDS011;47970;52.396;9.586;2022-11-18T02:54:55;9.20;;;3.75;;
62014;SDS011;47970;52.396;9.586;2022-11-18T02:57:21;7.00;;;3.67;;
62014;SDS011;47970;52.396;9.586;2022-11-18T02:59:47;6.00;;;3.95;;
62014;SDS011;47970;52.396;9.586;2022-11-18T03:02:16;8.10;;;3.67;;
62014;SDS011;47970;52.396;9.586;2022-11-18T03:04:42;9.98;;;4.30;;
62014;SDS011;47970;52.396;9.586;2022-11-18T03:07:13;6.38;;;3.17;;
62014;SDS011;47970;52.396;9.586;2022-11-18T03:09:41;9.32;;;3.80;;
62014;SDS011;47970;52.396;9.586;2022-11-18T03:14:39;5.80;;;3.53;;
62014;SDS011;47970;52.396;9.586;2022-11-18T03:22:09;6.70;;;3.40;;
62014;SDS011;47970;52.396;9.586;2022-11-18T03:24:36;10.18;;;3.88;;
62014;SDS011;47970;52.396;9.586;2022-11-18T03:27:11;8.45;;;3.97;;
62014;SDS011;47970;52.396;9.586;2022-11-18T03:29:40;6.78;;;3.63;;
62014;SDS011;47970;52.396;9.586;2022-11-18T03:32:11;8.23;;;3.75;;
62014;SDS011;47970;52.396;9.586;2022-11-18T03:34:42;6.68;;;3.92;;
62014;SDS011;47970;52.396;9.586;2022-11-18T03:37:09;8.32;;;4.00;;
62014;SDS011;47970;52.396;9.586;2022-11-18T03:39:37;7.53;;;3.95;;
62014;SDS011;47970;52.396;9.586;2022-11-18T03:42:05;6.82;;;4.07;;
62014;SDS011;47970;52.396;9.586;2022-11-18T03:44:33;6.57;;;3.70;;
62014;SDS011;47970;52.396;9.586;2022-11-18T03:47:11;8.43;;;4.47;;
62014;SDS011;47970;52.396;9.586;2022-11-18T03:49:45;7.15;;;4.15;;
62014;SDS011;47970;52.396;9.586;2022-11-18T03:52:14;8.88;;;4.63;;
62014;SDS011;47970;52.396;9.586;2022-11-18T03:54:41;7.40;;;3.67;;
62014;SDS011;47970;52.396;9.586;2022-11-18T03:57:13;10.10;;;4.57;;
62014;SDS011;47970;52.396;9.586;2022-11-18T03:59:40;11.68;;;4.20;;
62014;SDS011;47970;52.396;9.586;2022-11-18T04:02:14;7.70;;;4.20;;
62014;SDS011;47970;52.396;9.586;2022-11-18T04:04:41;8.82;;;4.80;;
62014;SDS011;47970;52.396;9.586;2022-11-18T04:09:50;8.52;;;3.72;;
62014;SDS011;47970;52.396;9.586;2022-11-18T04:12:18;8.77;;;4.97;;
62014;SDS011;47970;52.396;9.586;2022-11-18T04:14:45;8.02;;;4.20;;
62014;SDS011;47970;52.396;9.586;2022-11-18T04:17:18;8.10;;;4.93;;
62014;SDS011;47970;52.396;9.586;2022-11-18T04:19:44;7.60;;;4.38;;
62014;SDS011;47970;52.396;9.586;2022-11-18T04:22:09;9.80;;;5.13;;
62014;SDS011;47970;52.396;9.586;2022-11-18T04:24:34;7.35;;;4.45;;
62014;SDS011;47970;52.396;9.586;2022-11-18T04:27:00;11.38;;;5.35;;
62014;SDS011;47970;52.396;9.586;2022-11-18T04:29:26;12.55;;;5.50;;
62014;SDS011;47970;52.396;9.586;2022-11-18T04:31:51;11.73;;;5.28;;
62014;SDS011;47970;52.396;9.586;2022-11-18T04:34:17;8.63;;;4.60;;
62014;SDS011;47970;52.396;9.586;2022-11-18T04:36:42;10.20;;;3.77;;
62014;SDS011;47970;52.396;9.586;2022-11-18T04:39:07;10.52;;;5.25;;
62014;SDS011;47970;52.396;9.586;2022-11-18T04:41:33;9.82;;;4.80;;
62014;SDS011;47970;52.396;9.586;2022-11-18T04:44:16;10.68;;;4.65;;
62014;SDS011;47970;52.396;9.586;2022-11-18T04:46:42;11.33;;;5.73;;
62014;SDS011;47970;52.396;9.586;2022-11-18T04:49:08;11.13;;;5.25;;
62014;SDS011;47970;52.396;9.586;2022-11-18T04:51:34;12.50;;;5.57;;
62014;SDS011;47970;52.396;9.586;2022-11-18T04:53:59;10.47;;;4.90;;
62014;SDS011;47970;52.396;9.586;2022-11-18T04:56:24;10.77;;;4.78;;
62014;SDS011;47970;52.396;9.586;2022-11-18T04:58:49;9.57;;;5.57;;
62014;SDS011;47970;52.396;9.586;2022-11-18T05:01:14;14.20;;;5.43;;
62014;SDS011;47970;52.396;9.586;2022-11-18T05:03:40;12.73;;;5.07;;
62014;SDS011;47970;52.396;9.586;2022-11-18T05:06:05;11.20;;;5.67;;
62014;SDS011;47970;52.396;9.586;2022-11-18T05:08:30;8.43;;;4.77;;
62014;SDS011;47970;52.396;9.586;2022-11-18T05:10:55;12.00;;;5.47;;
62014;SDS011;47970;52.396;9.586;2022-11-18T05:13:40;11.52;;;4.90;;
62014;SDS011;47970;52.396;9.586;2022-11-18T05:16:06;10.87;;;5.23;;
62014;SDS011;47970;52.396;9.586;2022-11-18T05:18:31;9.40;;;5.53;;
62014;SDS011;47970;52.396;9.586;2022-11-18T05:20:56;11.13;;;5.30;;
62014;SDS011;47970;52.396;9.586;2022-11-18T05:23:21;14.77;;;5.83;;
62014;SDS011;47970;52.396;9.586;2022-11-18T05:25:46;11.70;;;5.43;;
62014;SDS011;47970;52.396;9.586;2022-11-18T05:28:12;12.43;;;5.97;;
62014;SDS011;47970;52.396;9.586;2022-11-18T05:30:37;12.87;;;5.83;;
62014;SDS011;47970;52.396;9.586;2022-11-18T05:33:02;14.13;;;6.23;;
62014;SDS011;47970;52.396;9.586;2022-11-18T05:35:27;12.70;;;5.75;;
62014;SDS011;47970;52.396;9.586;2022-11-18T05:37:52;11.70;;;5.00;;
62014;SDS011;47970;52.396;9.586;2022-11-18T05:40:18;15.70;;;6.50;;
62014;SDS011;47970;52.396;9.586;2022-11-18T05:42:43;14.48;;;6.65;;
62014;SDS011;47970;52.396;9.586;2022-11-18T05:45:26;12.15;;;6.65;;
62014;SDS011;47970;52.396;9.586;2022-11-18T05:47:52;16.90;;;6.57;;
62014;SDS011;47970;52.396;9.586;2022-11-18T05:50:28;13.57;;;6.55;;
62014;SDS011;47970;52.396;9.586;2022-11-18T05:52:53;13.07;;;5.97;;
62014;SDS011;47970;52.396;9.586;2022-11-18T05:55:18;12.90;;;6.27;;
62014;SDS011;47970;52.396;9.586;2022-11-18T05:57:44;16.58;;;6.75;;
62014;SDS011;47970;52.396;9.586;2022-11-18T06:00:10;12.27;;;5.90;;
62014;SDS011;47970;52.396;9.586;2022-11-18T06:02:35;12.27;;;6.53;;
62014;SDS011;47970;52.396;9.586;2022-11-18T06:05:00;12.48;;;5.43;;
62014;SDS011;47970;52.396;9.586;2022-11-18T06:07:28;16.75;;;7.35;;
62014;SDS011;47970;52.396;9.586;2022-11-18T06:09:57;17.20;;;6.60;;
62014;SDS011;47970;52.396;9.586;2022-11-18T06:12:23;13.55;;;7.15;;
62014;SDS011;47970;52.396;9.586;2022-11-18T06:14:51;13.20;;;7.22;;
62014;SDS011;47970;52.396;9.586;2022-11-18T06:17:29;14.60;;;6.28;;
62014;SDS011;47970;52.396;9.586;2022-11-18T06:19:55;12.88;;;5.40;;
62014;SDS011;47970;52.396;9.586;2022-11-18T06:22:21;13.38;;;6.15;;
62014;SDS011;47970;52.396;9.586;2022-11-18T06:24:47;13.52;;;6.28;;
62014;SDS011;47970;52.396;9.586;2022-11-18T06:27:12;15.65;;;6.35;;
62014;SDS011;47970;52.396;9.586;2022-11-18T06:29:38;15.18;;;7.72;;
62014;SDS011;47970;52.396;9.586;2022-11-18T06:32:03;14.20;;;7.20;;
62014;SDS011;47970;52.396;9.586;2022-11-18T06:34:28;18.35;;;8.30;;
62014;SDS011;47970;52.396;9.586;2022-11-18T06:36:54;15.53;;;7.63;;
62014;SDS011;47970;52.396;9.586;2022-11-18T06:39:19;15.60;;;7.57;;
62014;SDS011;47970;52.396;9.586;2022-11-18T06:41:44;12.85;;;6.80;;
62014;SDS011;47970;52.396;9.586;2022-11-18T06:44:10;17.73;;;7.67;;
62014;SDS011;47970;52.396;9.586;2022-11-18T06:46:35;13.82;;;7.47;;
62014;SDS011;47970;52.396;9.586;2022-11-18T06:49:19;16.85;;;7.80;;
62014;SDS011;47970;52.396;9.586;2022-11-18T06:51:44;14.52;;;7.25;;
62014;SDS011;47970;52.396;9.586;2022-11-18T06:54:10;18.53;;;7.57;;
62014;SDS011;47970;52.396;9.586;2022-11-18T06:56:35;16.65;;;7.38;;
62014;SDS011;47970;52.396;9.586;2022-11-18T06:59:00;19.08;;;7.75;;
62014;SDS011;47970;52.396;9.586;2022-11-18T07:01:26;16.35;;;7.20;;
62014;SDS011;47970;52.396;9.586;2022-11-18T07:03:52;19.60;;;9.60;;
62014;SDS011;47970;52.396;9.586;2022-11-18T07:06:21;17.73;;;8.70;;
62014;SDS011;47970;52.396;9.586;2022-11-18T07:08:46;24.75;;;9.07;;
62014;SDS011;47970;52.396;9.586;2022-11-18T07:11:13;19.73;;;9.13;;
62014;SDS011;47970;52.396;9.586;2022-11-18T07:13:39;20.02;;;9.15;;
62014;SDS011;47970;52.396;9.586;2022-11-18T07:16:08;19.20;;;9.30;;
62014;SDS011;47970;52.396;9.586;2022-11-18T07:18:35;18.33;;;7.93;;
62014;SDS011;47970;52.396;9.586;2022-11-18T07:21:02;19.17;;;8.35;;
62014;SDS011;47970;52.396;9.586;2022-11-18T07:23:28;19.95;;;9.63;;
62014;SDS011;47970;52.396;9.586;2022-11-18T07:25:54;18.02;;;9.48;;
62014;SDS011;47970;52.396;9.586;2022-11-18T07:28:19;21.50;;;8.77;;
62014;SDS011;47970;52.396;9.586;2022-11-18T07:30:44;21.87;;;10.03;;
62014;SDS011;47970;52.396;9.586;2022-11-18T07:33:09;19.80;;;9.40;;
62014;SDS011;47970;52.396;9.586;2022-11-18T07:35:35;18.97;;;9.40;;
62014;SDS011;47970;52.396;9.586;2022-11-18T07:38:00;22.47;;;10.30;;
62014;SDS011;47970;52.396;9.586;2022-11-18T07:40:25;16.05;;;8.82;;
62014;SDS011;47970;52.396;9.586;2022-11-18T07:42:50;19.00;;;9.30;;
62014;SDS011;47970;52.396;9.586;2022-11-18T07:45:15;22.45;;;9.90;;
62014;SDS011;47970;52.396;9.586;2022-11-18T07:47:41;20.40;;;8.53;;
62014;SDS011;47970;52.396;9.586;2022-11-18T07:50:06;19.50;;;8.70;;
62014;SDS011;47970;52.396;9.586;2022-11-18T07:52:31;16.40;;;7.80;;
62014;SDS011;47970;52.396;9.586;2022-11-18T07:54:56;16.87;;;7.70;;
62014;SDS011;47970;52.396;9.586;2022-11-18T07:57:22;24.40;;;9.93;;
62014;SDS011;47970;52.396;9.586;2022-11-18T07:59:47;19.47;;;9.47;;
62014;SDS011;47970;52.396;9.586;2022-11-18T08:02:12;18.17;;;8.57;;
62014;SDS011;47970;52.396;9.586;2022-11-18T08:04:37;20.38;;;9.27;;
62014;SDS011;47970;52.396;9.586;2022-11-18T08:07:02;23.80;;;10.13;;
62014;SDS011;47970;52.396;9.586;2022-11-18T08:09:28;19.57;;;9.93;;
62014;SDS011;47970;52.396;9.586;2022-11-18T08:11:53;20.95;;;9.57;;
62014;SDS011;47970;52.396;9.586;2022-11-18T08:14:18;18.67;;;9.67;;
62014;SDS011;47970;52.396;9.586;2022-11-18T08:16:43;19.05;;;8.65;;
62014;SDS011;47970;52.396;9.586;2022-11-18T08:19:09;19.30;;;9.00;;
62014;SDS011;47970;52.396;9.586;2022-11-18T08:21:34;23.07;;;9.07;;
62014;SDS011;47970;52.396;9.586;2022-11-18T08:23:59;20.73;;;9.33;;
62014;SDS011;47970;52.396;9.586;2022-11-18T08:26:25;25.02;;;10.43;;
62014;SDS011;47970;52.396;9.586;2022-11-18T08:28:50;19.30;;;8.90;;
62014;SDS011;47970;52.396;9.586;2022-11-18T08:31:16;19.88;;;9.68;;
62014;SDS011;47970;52.396;9.586;2022-11-18T08:33:42;18.63;;;8.57;;
62014;SDS011;47970;52.396;9.586;2022-11-18T08:36:08;17.90;;;8.70;;
62014;SDS011;47970;52.396;9.586;2022-11-18T08:38:35;24.02;;;9.45;;
62014;SDS011;47970;52.396;9.586;2022-11-18T08:41:00;18.88;;;9.35;;
62014;SDS011;47970;52.396;9.586;2022-11-18T08:43:25;19.00;;;9.55;;
62014;SDS011;47970;52.396;9.586;2022-11-18T08:45:50;18.53;;;9.20;;
62014;SDS011;47970;52.396;9.586;2022-11-18T08:48:16;21.42;;;9.52;;
62014;SDS011;47970;52.396;9.586;2022-11-18T08:50:41;19.37;;;9.37;;
62014;SDS011;47970;52.396;9.586;2022-11-18T08:53:06;20.83;;;8.77;;
62014;SDS011;47970;52.396;9.586;2022-11-18T08:55:31;23.97;;;9.07;;
62014;SDS011;47970;52.396;9.586;2022-11-18T08:57:56;21.60;;;8.67;;
62014;SDS011;47970;52.396;9.586;2022-11-18T09:00:22;21.73;;;9.07;;
62014;SDS011;47970;52.396;9.586;2022-11-18T09:02:47;19.98;;;8.80;;
62014;SDS011;47970;52.396;9.586;2022-11-18T09:05:12;15.80;;;7.38;;
62014;SDS011;47970;52.396;9.586;2022-11-18T09:07:37;17.63;;;8.57;;
62014;SDS011;47970;52.396;9.586;2022-11-18T09:10:03;20.90;;;9.70;;
62014;SDS011;47970;52.396;9.586;2022-11-18T09:12:28;19.65;;;9.90;;
62014;SDS011;47970;52.396;9.586;2022-11-18T09:14:53;21.67;;;10.63;;
62014;SDS011;47970;52.396;9.586;2022-11-18T09:17:18;21.50;;;9.87;;
62014;SDS011;47970;52.396;9.586;2022-11-18T09:19:44;21.67;;;9.70;;
62014;SDS011;47970;52.396;9.586;2022-11-18T09:22:09;22.25;;;10.23;;
62014;SDS011;47970;52.396;9.586;2022-11-18T09:24:34;18.48;;;9.73;;
62014;SDS011;47970;52.396;9.586;2022-11-18T09:27:04;23.27;;;11.05;;
62014;SDS011;47970;52.396;9.586;2022-11-18T09:29:30;27.10;;;11.68;;
62014;SDS011;47970;52.396;9.586;2022-11-18T09:31:55;22.80;;;10.95;;
62014;SDS011;47970;52.396;9.586;2022-11-18T09:34:21;22.13;;;10.82;;
62014;SDS011;47970;52.396;9.586;2022-11-18T09:36:46;23.33;;;11.30;;
62014;SDS011;47970;52.396;9.586;2022-11-18T09:39:12;21.00;;;9.73;;
62014;SDS011;47970;52.396;9.586;2022-11-18T09:41:42;20.58;;;9.98;;
62014;SDS011;47970;52.396;9.586;2022-11-18T09:49:09;24.43;;;11.37;;
62014;SDS011;47970;52.396;9.586;2022-11-18T09:51:39;21.85;;;10.65;;
62014;SDS011;47970;52.396;9.586;2022-11-18T09:54:07;20.42;;;9.77;;
62014;SDS011;47970;52.396;9.586;2022-11-18T09:56:34;21.10;;;10.23;;
62014;SDS011;47970;52.396;9.586;2022-11-18T09:58:59;21.50;;;10.93;;
62014;SDS011;47970;52.396;9.586;2022-11-18T10:01:24;20.85;;;10.43;;
62014;SDS011;47970;52.396;9.586;2022-11-18T10:03:49;20.60;;;9.98;;
62014;SDS011;47970;52.396;9.586;2022-11-18T10:06:25;23.48;;;10.15;;
62014;SDS011;47970;52.396;9.586;2022-11-18T10:11:16;23.37;;;9.90;;
62014;SDS011;47970;52.396;9.586;2022-11-18T10:26:38;14.93;;;7.63;;
62014;SDS011;47970;52.396;9.586;2022-11-18T10:29:03;15.45;;;7.88;;
62014;SDS011;47970;52.396;9.586;2022-11-18T10:31:35;14.23;;;7.80;;
62014;SDS011;47970;52.396;9.586;2022-11-18T10:34:00;13.15;;;6.43;;
62014;SDS011;47970;52.396;9.586;2022-11-18T10:36:27;15.80;;;8.52;;
62014;SDS011;47970;52.396;9.586;2022-11-18T10:41:34;14.13;;;6.43;;
62014;SDS011;47970;52.396;9.586;2022-11-18T10:44:01;13.40;;;7.18;;
62014;SDS011;47970;52.396;9.586;2022-11-18T10:46:27;17.60;;;8.43;;
62014;SDS011;47970;52.396;9.586;2022-11-18T10:51:34;14.27;;;7.10;;
62014;SDS011;47970;52.396;9.586;2022-11-18T10:54:06;14.70;;;7.10;;
62014;SDS011;47970;52.396;9.586;2022-11-18T10:56:42;11.85;;;6.22;;
62014;SDS011;47970;52.396;9.586;2022-11-18T10:59:10;15.18;;;8.02;;
62014;SDS011;47970;52.396;9.586;2022-11-18T11:01:40;10.82;;;5.25;;
62014;SDS011;47970;52.396;9.586;2022-11-18T11:04:16;13.05;;;6.55;;
62014;SDS011;47970;52.396;9.586;2022-11-18T11:06:42;12.88;;;6.18;;
62014;SDS011;47970;52.396;9.586;2022-11-18T11:09:09;12.88;;;6.10;;
62014;SDS011;47970;52.396;9.586;2022-11-18T11:14:31;12.43;;;6.55;;
62014;SDS011;47970;52.396;9.586;2022-11-18T11:19:30;10.55;;;6.25;;
62014;SDS011;47970;52.396;9.586;2022-11-18T11:21:57;12.55;;;6.40;;
62014;SDS011;47970;52.396;9.586;2022-11-18T11:24:23;10.55;;;6.15;;
62014;SDS011;47970;52.396;9.586;2022-11-18T11:26:53;16.27;;;6.88;;
62014;SDS011;47970;52.396;9.586;2022-11-18T11:29:33;14.30;;;6.57;;
62014;SDS011;47970;52.396;9.586;2022-11-18T11:36:58;11.45;;;6.45;;
62014;SDS011;47970;52.396;9.586;2022-11-18T11:42:05;8.17;;;5.43;;
62014;SDS011;47970;52.396;9.586;2022-11-18T11:44:38;10.82;;;5.80;;
62014;SDS011;47970;52.396;9.586;2022-11-18T11:47:12;13.88;;;6.47;;
62014;SDS011;47970;52.396;9.586;2022-11-18T11:52:51;14.02;;;7.07;;
62014;SDS011;47970;52.396;9.586;2022-11-18T11:58:07;13.40;;;6.85;;
62014;SDS011;47970;52.396;9.586;2022-11-18T12:00:38;13.77;;;7.00;;
62014;SDS011;47970;52.396;9.586;2022-11-18T12:05:32;11.38;;;6.40;;
62014;SDS011;47970;52.396;9.586;2022-11-18T12:08:00;12.57;;;6.90;;
62014;SDS011;47970;52.396;9.586;2022-11-18T12:10:31;11.68;;;6.43;;
62014;SDS011;47970;52.396;9.586;2022-11-18T12:18:21;13.98;;;6.72;;
62014;SDS011;47970;52.396;9.586;2022-11-18T12:20:50;11.32;;;6.07;;
62014;SDS011;47970;52.396;9.586;2022-11-18T12:26:03;12.45;;;6.28;;
62014;SDS011;47970;52.396;9.586;2022-11-18T12:28:28;12.82;;;6.97;;
62014;SDS011;47970;52.396;9.586;2022-11-18T12:33:41;12.57;;;7.43;;
62014;SDS011;47970;52.396;9.586;2022-11-18T12:36:07;13.25;;;7.00;;
62014;SDS011;47970;52.396;9.586;2022-11-18T12:38:33;14.95;;;7.57;;
62014;SDS011;47970;52.396;9.586;2022-11-18T12:40:58;15.90;;;7.83;;
62014;SDS011;47970;52.396;9.586;2022-11-18T12:48:55;14.00;;;7.57;;
62014;SDS011;47970;52.396;9.586;2022-11-18T12:53:48;14.48;;;7.47;;
62014;SDS011;47970;52.396;9.586;2022-11-18T13:01:11;14.48;;;7.53;;
62014;SDS011;47970;52.396;9.586;2022-11-18T13:03:36;16.75;;;7.60;;
62014;SDS011;47970;52.396;9.586;2022-11-18T13:06:06;13.50;;;6.85;;
62014;SDS011;47970;52.396;9.586;2022-11-18T13:08:32;14.82;;;7.03;;
62014;SDS011;47970;52.396;9.586;2022-11-18T13:11:08;14.23;;;7.10;;
62014;SDS011;47970;52.396;9.586;2022-11-18T13:13:52;17.23;;;8.20;;
62014;SDS011;47970;52.396;9.586;2022-11-18T13:16:38;14.65;;;7.43;;
62014;SDS011;47970;52.396;9.586;2022-11-18T13:19:22;15.48;;;8.23;;
62014;SDS011;47970;52.396;9.586;2022-11-18T13:21:55;20.55;;;8.07;;
62014;SDS011;47970;52.396;9.586;2022-11-18T13:24:42;15.48;;;7.05;;
62014;SDS011;47970;52.396;9.586;2022-11-18T13:27:08;15.45;;;7.22;;
62014;SDS011;47970;52.396;9.586;2022-11-18T13:34:47;16.58;;;8.32;;
62014;SDS011;47970;52.396;9.586;2022-11-18T13:37:23;17.42;;;8.50;;
62014;SDS011;47970;52.396;9.586;2022-11-18T13:39:48;12.73;;;7.65;;
62014;SDS011;47970;52.396;9.586;2022-11-18T13:42:19;15.63;;;8.02;;
62014;SDS011;47970;52.396;9.586;2022-11-18T13:44:54;15.50;;;7.82;;
62014;SDS011;47970;52.396;9.586;2022-11-18T13:52:22;14.75;;;7.72;;
62014;SDS011;47970;52.396;9.586;2022-11-18T13:54:48;14.07;;;7.78;;
62014;SDS011;47970;52.396;9.586;2022-11-18T13:57:15;13.23;;;7.53;;
62014;SDS011;47970;52.396;9.586;2022-11-18T13:59:42;13.48;;;7.30;;
62014;SDS011;47970;52.396;9.586;2022-11-18T14:02:09;14.40;;;8.23;;
62014;SDS011;47970;52.396;9.586;2022-11-18T14:04:35;12.13;;;6.63;;
62014;SDS011;47970;52.396;9.586;2022-11-18T14:09:51;13.48;;;7.47;;
62014;SDS011;47970;52.396;9.586;2022-11-18T14:14:41;15.97;;;7.40;;
62014;SDS011;47970;52.396;9.586;2022-11-18T14:19:45;14.32;;;8.02;;
62014;SDS011;47970;52.396;9.586;2022-11-18T14:22:15;15.75;;;8.48;;
62014;SDS011;47970;52.396;9.586;2022-11-18T14:24:40;13.68;;;7.07;;
62014;SDS011;47970;52.396;9.586;2022-11-18T14:29:57;14.55;;;8.05;;
62014;SDS011;47970;52.396;9.586;2022-11-18T14:32:24;14.57;;;7.67;;
62014;SDS011;47970;52.396;9.586;2022-11-18T14:34:56;17.67;;;9.50;;
62014;SDS011;47970;52.396;9.586;2022-11-18T14:37:21;17.35;;;8.63;;
62014;SDS011;47970;52.396;9.586;2022-11-18T14:39:53;16.93;;;9.13;;
62014;SDS011;47970;52.396;9.586;2022-11-18T14:42:18;15.18;;;8.75;;
62014;SDS011;47970;52.396;9.586;2022-11-18T14:44:43;17.23;;;9.50;;
62014;SDS011;47970;52.396;9.586;2022-11-18T14:47:12;16.87;;;9.20;;
62014;SDS011;47970;52.396;9.586;2022-11-18T14:49:39;17.77;;;9.63;;
62014;SDS011;47970;52.396;9.586;2022-11-18T14:52:04;16.55;;;8.25;;
62014;SDS011;47970;52.396;9.586;2022-11-18T14:54:30;18.17;;;9.80;;
62014;SDS011;47970;52.396;9.586;2022-11-18T14:56:56;18.85;;;9.82;;
62014;SDS011;47970;52.396;9.586;2022-11-18T14:59:22;19.70;;;9.75;;
62014;SDS011;47970;52.396;9.586;2022-11-18T15:01:47;17.35;;;9.32;;
62014;SDS011;47970;52.396;9.586;2022-11-18T15:04:13;19.67;;;10.75;;
62014;SDS011;47970;52.396;9.586;2022-11-18T15:06:39;18.15;;;9.13;;
62014;SDS011;47970;52.396;9.586;2022-11-18T15:09:05;21.67;;;10.20;;
62014;SDS011;47970;52.396;9.586;2022-11-18T15:11:31;23.15;;;10.98;;
62014;SDS011;47970;52.396;9.586;2022-11-18T15:13:57;20.60;;;10.13;;
62014;SDS011;47970;52.396;9.586;2022-11-18T15:16:23;20.70;;;9.87;;
62014;SDS011;47970;52.396;9.586;2022-11-18T15:18:50;18.17;;;9.93;;
62014;SDS011;47970;52.396;9.586;2022-11-18T15:21:16;21.42;;;10.20;;
62014;SDS011;47970;52.396;9.586;2022-11-18T15:23:41;20.02;;;10.40;;
62014;SDS011;47970;52.396;9.586;2022-11-18T15:26:20;21.50;;;11.40;;
62014;SDS011;47970;52.396;9.586;2022-11-18T15:28:46;23.05;;;11.48;;
62014;SDS011;47970;52.396;9.586;2022-11-18T15:31:12;19.70;;;10.88;;
62014;SDS011;47970;52.396;9.586;2022-11-18T15:33:37;22.88;;;9.98;;
62014;SDS011;47970;52.396;9.586;2022-11-18T15:36:02;20.35;;;11.05;;
62014;SDS011;47970;52.396;9.586;2022-11-18T15:38:28;19.30;;;10.55;;
62014;SDS011;47970;52.396;9.586;2022-11-18T15:40:53;17.98;;;10.50;;
62014;SDS011;47970;52.396;9.586;2022-11-18T15:43:18;20.67;;;11.55;;
62014;SDS011;47970;52.396;9.586;2022-11-18T15:45:44;17.02;;;9.85;;
62014;SDS011;47970;52.396;9.586;2022-11-18T15:48:09;18.13;;;9.87;;
62014;SDS011;47970;52.396;9.586;2022-11-18T15:50:34;18.47;;;10.20;;
62014;SDS011;47970;52.396;9.586;2022-11-18T15:52:59;26.17;;;11.90;;
62014;SDS011;47970;52.396;9.586;2022-11-18T15:55:24;19.25;;;10.80;;
62014;SDS011;47970;52.396;9.586;2022-11-18T15:57:50;19.92;;;10.80;;
62014;SDS011;47970;52.396;9.586;2022-11-18T16:00:15;19.58;;;10.65;;
62014;SDS011;47970;52.396;9.586;2022-11-18T16:02:40;22.42;;;10.73;;
62014;SDS011;47970;52.396;9.586;2022-11-18T16:05:06;19.60;;;10.70;;
62014;SDS011;47970;52.396;9.586;2022-11-18T16:07:31;17.23;;;10.60;;
62014;SDS011;47970;52.396;9.586;2022-11-18T16:09:56;20.10;;;10.43;;
62014;SDS011;47970;52.396;9.586;2022-11-18T16:12:40;18.17;;;9.85;;
62014;SDS011;47970;52.396;9.586;2022-11-18T16:15:12;20.77;;;10.98;;
62014;SDS011;47970;52.396;9.586;2022-11-18T16:17:56;20.25;;;10.30;;
62014;SDS011;47970;52.396;9.586;2022-11-18T16:20:22;20.17;;;10.32;;
62014;SDS011;47970;52.396;9.586;2022-11-18T16:22:47;18.45;;;9.18;;
62014;SDS011;47970;52.396;9.586;2022-11-18T16:25:13;18.60;;;10.02;;
62014;SDS011;47970;52.396;9.586;2022-11-18T16:27:38;18.33;;;10.33;;
62014;SDS011;47970;52.396;9.586;2022-11-18T16:30:03;20.97;;;10.10;;
62014;SDS011;47970;52.396;9.586;2022-11-18T16:32:29;18.13;;;9.77;;
62014;SDS011;47970;52.396;9.586;2022-11-18T16:34:54;17.27;;;9.48;;